Airfield :
LOGIN :

Register | Disclaimer

   EN    FR    IT 

 










Legend :    VFR   Marginal VFR   IFR   Intensive IFR   Very Intensive IFR
Visi :
Ceiling :
>= 8 km
>= 3000ft
5 to 8 km
1000 to 3000 ft
1500m to 5 km
500 to 1000 ft
800 to 1500m
200 to 500 ft
< 800m
< 200 ft
Symbols :   Thunderstorms  Fog  Heavy snow  Heavy precipitations  Wind > 20 kt
SIGMETs :     Misc.  Thunderstorms  Icing  Turbulence  Mountain Waves  Volcanic Ashes







- Airport Elevation : 239 ft
- IATA code : VRN


LIPX - Villafranca Int. Verona

CURRENT METAR :
  • 262020Z 36001KT CAVOK 08/M02 Q1023

EXPIRED METARs :
  • 261950Z VRB02KT CAVOK 09/M02 Q1023
  • 261920Z 08003KT CAVOK 09/M02 Q1023
  • 261850Z 09003KT CAVOK 10/M02 Q1022
  • 261820Z 11004KT CAVOK 10/M02 Q1022
  • 261750Z 13004KT CAVOK 12/M02 Q1021

TAF TAF LIPX
Valid from the 26 at 21:00 until the 27 at 06:00 UTC


262000Z 2621/2706 VRB05KT CAVOK
No reported NOTAMs for that airfield.
4 SIGMETs reported for the Milano FIR (LIMM) :
 
Severe turbulence
LIMM SIGMET 15 VALID 262100/270100 LIIP
LIMM MILANO FIR SEV TURB FCST WI N4425 E00912 - N4445 E01018 - N4340 E01214 - N4339 E01021 - N4425 E00912 BLW FL070 STNR NC=
Severe turbulence
LIMM SIGMET 14 VALID 262100/270100 LIIP
LIMM MILANO FIR SEV TURB FCST S OF LINE N4504 E00620 - N4640 E01304 FL180/360 STNR NC=
Severe turbulence
LIMM SIGMET 13 VALID 262000/262100 LIIP
LIMM MILANO FIR SEV TURB FCST WI N4425 E00912 - N4445 E01018 - N4340 E01214 - N4339 E01021 - N4425 E00912 BLW FL070 STNR NC=
Severe turbulence
LIMM SIGMET 12 VALID 262000/262100 LIIP
LIMM MILANO FIR SEV TURB FCST ENTIRE FIR FL150/370 STNR NC=



MET'MAP, your aeronautical weather chart ! - Copyright ORBIFLY December 2007 - Disclaimer

ORBIFLY MET'MAP TEAM :

Programming & Development : Alexandra Zaïnal
Concept & Development : Baudouin d'Aumeries
Co-Development & Prog : Marc-Olivier Méhu
Technical & hardware support : Manuel Goepfert

Contact : metmap@orbifly.com




SOURCES & CREDITS :

   NOAA